Flight Track Log - Related Links

Times and Time Zones

All times are in EST time to prevent confusion due to time zone crossing. See the N400PU flight status page for this flight to view local times or setup timezone preferences in your user account.

Time Position Orientation Groundspeed Altitude Reporting Facility
EST Latitude Longitude Course Direction KTS MPH feet Rate Location/Type
Wed 06:12:06 AM 40.4103 -86.8664 86° East 210 242 3,400  Level Chicago Center
Wed 06:13:06 AM 40.4150 -86.7814 86° East 232 267 5,800 2,750 Climbing Chicago Center
Wed 06:14:06 AM 40.4253 -86.6597 84° East 277 319 8,900 2,479 Climbing Chicago Center
Wed 06:15:07 AM 40.4336 -86.5567 84° East 284 327 10,800 1,934 Climbing Chicago Center
Wed 06:16:07 AM 40.4411 -86.4450 85° East 302 348 12,800 1,934 Climbing Chicago Center
Wed 06:17:08 AM 40.4503 -86.3303 84° East 314 361 14,700 1,884 Climbing Chicago Center
Wed 06:18:08 AM 40.4578 -86.2153 85° East 316 364 16,600 1,650 Climbing Chicago Center
Wed 06:19:08 AM 40.4658 -86.0953 85° East 328 377 18,000 1,488 Climbing Chicago Center
Wed 06:20:09 AM 40.4747 -85.9731 84° East 335 386 19,600 1,488 Climbing Chicago Center
Wed 06:21:09 AM 40.4836 -85.8425 85° East 354 407 21,000 1,438 Climbing Chicago Center
Wed 06:22:10 AM 40.4922 -85.7075 85° East 368 423 22,500 1,488 Climbing Chicago Center
Wed 06:23:10 AM 40.5089 -85.5717 81° East 378 435 24,000 1,500 Climbing Chicago Center
Wed 06:24:10 AM 40.5272 -85.4333 80° East 384 442 25,500 1,438 Climbing Chicago Center
Wed 06:25:11 AM 40.5467 -85.2944 80° East 389 448 26,900 1,240 Climbing Chicago Center
Wed 06:26:11 AM 40.5647 -85.1531 80° East 392 451 28,000 1,041 Climbing Chicago Center
Wed 06:27:12 AM 40.5839 -85.0075 80° East 405 466 29,000 942 Climbing Chicago Center
Wed 06:28:12 AM 40.6028 -84.8569 81° East 416 479 29,900 950 Climbing Chicago Center
Wed 06:29:12 AM 40.6233 -84.7031 80° East 427 491 30,900 992 Climbing Chicago Center
Wed 06:30:13 AM 40.6419 -84.5422 81° East 438 504 31,900 992 Climbing Chicago Center
Wed 06:31:13 AM 40.6603 -84.3850 81° East 438 504 32,900 942 Climbing Chicago Center
Wed 06:32:14 AM 40.6808 -84.2272 80° East 439 505 33,800 942 Climbing Chicago Center
Wed 06:33:14 AM 40.6994 -84.0711 81° East 436 502 34,800 843 Climbing Chicago Center
Wed 06:34:15 AM 40.7192 -83.9119 81° East 439 505 35,500 694 Climbing Chicago Center
Wed 06:35:15 AM 40.7378 -83.7542 81° East 439 505 36,200 694 Climbing Chicago Center
Wed 06:36:16 AM 40.7564 -83.5944 81° East 441 507 36,900 397 Climbing Chicago Center
Wed 06:37:16 AM 40.7750 -83.4333 81° East 445 512 37,000 41 Climbing Chicago Center
Wed 06:38:43 AM 40.8044 -83.1744 81° East 465 535 37,000  Level Cleveland Center
Wed 06:39:41 AM 40.8253 -82.9964 81° East 472 543 37,000  Level Indianapolis Center
Wed 06:40:42 AM 40.8431 -82.8236 82° East 472 543 37,000  Level Indianapolis Center
Wed 06:41:43 AM 40.8622 -82.6525 82° East 467 537 37,000  Level Indianapolis Center
Wed 06:42:43 AM 40.8675 -82.4808 88° East 470 541 37,000  Level Indianapolis Center
Wed 06:43:44 AM 40.8653 -82.3092 91° East 467 537 37,000  Level Indianapolis Center
Wed 06:44:45 AM 40.8636 -82.1364 91° East 468 539 37,000  Level Indianapolis Center
Wed 06:45:46 AM 40.8611 -81.9636 91° East 469 540 37,000  Level Indianapolis Center
Wed 06:46:47 AM 40.8589 -81.7908 91° East 470 541 37,000  Level Indianapolis Center
Wed 06:47:48 AM 40.8558 -81.6169 91° East 472 543 37,000  Level Indianapolis Center
Wed 06:48:48 AM 40.8531 -81.4428 91° East 474 545 37,000  Level Indianapolis Center
Wed 06:49:49 AM 40.8494 -81.2694 92° East 472 543 37,000 -393 Level Indianapolis Center
Wed 06:50:50 AM 40.8467 -81.0969 91° East 469 540 36,200 -877 Descending Indianapolis Center
Wed 06:51:59 AM 40.8419 -80.9208 92° East 457 526 35,100 -969 Descending Cleveland Center
Wed 06:53:00 AM 40.8386 -80.7467 91° East 470 541 34,100 -1,024 Descending Cleveland Center
Wed 06:54:02 AM 40.8342 -80.5514 92° East 471 542 33,000 -1,024 Descending Cleveland Center
Wed 06:55:03 AM 40.8294 -80.3775 92° East 471 542 32,000 -1,024 Descending Cleveland Center
Wed 06:56:05 AM 40.8244 -80.2042 92° East 474 545 30,900 -1,024 Descending Cleveland Center
Wed 06:57:06 AM 40.8275 -80.0311 89° East 472 543 29,900 -1,082 Descending Cleveland Center
Wed 06:58:07 AM 40.8319 -79.8381 88° East 476 548 28,700 -1,317 Descending Cleveland Center
Wed 06:59:09 AM 40.8358 -79.6628 88° East 477 549 27,200 -1,756 Descending Cleveland Center
Wed 07:00:10 AM 40.8375 -79.4900 89° East 471 542 25,100 -2,115 Descending Cleveland Center
Wed 07:01:11 AM 40.8394 -79.3169 89° East 471 542 22,900 -2,098 Descending Cleveland Center
Wed 07:02:13 AM 40.8422 -79.1511 89° East 457 526 20,800 -2,098 Descending Cleveland Center
Wed 07:03:14 AM 40.8439 -78.9919 89° East 437 503 18,600 -2,049 Descending Cleveland Center
Wed 07:04:16 AM 40.8458 -78.8386 89° East 408 470 16,600 -2,439 Descending Cleveland Center
Wed 07:05:17 AM 40.8472 -78.6711 89° East 388 447 13,600 -2,634 Descending Cleveland Center
Wed 07:06:19 AM 40.8461 -78.5358 91° East 381 438 11,200 -1,268 Descending Cleveland Center
Wed 07:07:20 AM 40.8481 -78.4122 89° East 349 402 11,000 -780 Descending Cleveland Center
Wed 07:08:22 AM 40.8483 -78.3022 90° East 299 344 9,600 -1,610 Descending Cleveland Center
Wed 07:09:23 AM 40.8492 -78.2086 89° East 269 310 7,700 -1,951 Descending Cleveland Center
Wed 07:10:25 AM 40.8503 -78.1181 89° East 255 293 5,600 -2,146 Descending Cleveland Center
Wed 07:11:26 AM 40.8350 -78.0147 101° East 243 280 3,300 -1,268 Descending Cleveland Center
Wed 07:12:28 AM 40.8197 -77.9397 105° East 222 255 3,000 -634 Descending Cleveland Center
Wed 07:13:29 AM 40.8253 -77.8872 82° East 173 199 2,000 -833 Descending Cleveland Center
Wed 07:14:16 AM 40.8381 -77.8700 46° Northeast 153 176 1,500 -638 Descending New York Center

Login

Don't have an account? Register now (free) for customized features, flight alerts, and more!